Time;durP1;ratioP1;P1;durP2;ratioP2;P2;SDS_P1;SDS_P2;PMS_P1;PMS_P2;Temp;Humidity;BMP_temperature;BMP_pressure;BME280_temperature;BME280_humidity;BME280_pressure;Samples;Min_cycle;Max_cycle;Signal;HPM_P1;HPM_P2
2023/05/21 00:00:50;;;;;;;20.35;18.65;;;18.30;77.10;;;;;;5019163;28;20189;-86
2023/05/21 00:03:16;;;;;;;20.58;18.98;;;18.30;77.20;;;;;;5007953;28;20247;-87
2023/05/21 00:05:43;;;;;;;21.60;19.77;;;18.30;77.10;;;;;;5017485;28;20197;-89
2023/05/21 00:08:09;;;;;;;22.15;20.10;;;18.30;76.90;;;;;;5012125;28;20179;-87
2023/05/21 00:10:35;;;;;;;21.33;19.63;;;18.30;76.60;;;;;;5015011;28;20192;-86
2023/05/21 00:13:01;;;;;;;21.52;19.52;;;18.30;77.10;;;;;;5034911;28;20268;-87
2023/05/21 00:15:26;;;;;;;20.80;19.10;;;18.30;76.60;;;;;;5033134;28;20269;-87
2023/05/21 00:17:52;;;;;;;22.25;20.10;;;18.30;76.80;;;;;;5027768;28;20182;-87
2023/05/21 00:20:18;;;;;;;20.45;18.80;;;18.30;76.80;;;;;;5023890;28;20207;-87
2023/05/21 00:22:43;;;;;;;20.90;19.10;;;18.20;77.30;;;;;;5018799;28;20526;-87
2023/05/21 00:25:10;;;;;;;21.58;19.77;;;18.20;77.70;;;;;;5020399;28;20205;-86
2023/05/21 00:27:36;;;;;;;21.13;19.42;;;18.10;78.30;;;;;;5018111;28;20188;-86
2023/05/21 00:30:02;;;;;;;22.00;20.17;;;18.10;78.00;;;;;;5019011;28;20222;-87
2023/05/21 00:32:28;;;;;;;20.35;18.50;;;18.20;78.20;;;;;;5016802;28;20253;-87
2023/05/21 00:34:53;;;;;;;20.73;18.95;;;18.10;78.50;;;;;;5018369;28;20233;-88
2023/05/21 00:37:19;;;;;;;21.30;19.42;;;18.10;78.40;;;;;;5018372;28;20182;-86
2023/05/21 00:39:45;;;;;;;21.55;19.65;;;18.10;78.10;;;;;;5018657;28;20217;-87
2023/05/21 00:42:11;;;;;;;22.27;20.25;;;18.10;78.40;;;;;;5019665;28;20174;-87
2023/05/21 00:44:37;;;;;;;20.90;19.10;;;18.10;78.30;;;;;;5019237;28;20193;-86
2023/05/21 00:47:05;;;;;;;20.73;19.13;;;18.10;78.80;;;;;;5020236;28;20182;-87
2023/05/21 00:49:31;;;;;;;21.35;19.65;;;18.10;78.70;;;;;;5018958;28;20208;-86
2023/05/21 00:52:00;;;;;;;21.23;19.42;;;18.10;78.70;;;;;;5019487;28;20174;-88
2023/05/21 00:54:26;;;;;;;21.45;19.55;;;18.00;78.70;;;;;;5017794;28;20197;-87
2023/05/21 00:56:52;;;;;;;21.45;19.65;;;18.00;78.80;;;;;;5018678;28;20185;-88
2023/05/21 00:59:19;;;;;;;21.45;19.45;;;18.00;78.70;;;;;;5018729;28;20261;-87
2023/05/21 01:01:44;;;;;;;21.35;19.52;;;18.00;79.30;;;;;;5019984;28;20241;-86
2023/05/21 01:04:11;;;;;;;20.48;18.67;;;17.90;79.80;;;;;;5019504;28;20224;-88
2023/05/21 01:06:37;;;;;;;22.10;20.10;;;17.90;80.20;;;;;;5020269;28;20245;-87
2023/05/21 01:09:05;;;;;;;20.77;18.98;;;17.80;80.20;;;;;;5019157;28;20271;-87
2023/05/21 01:11:46;;;;;;;22.05;20.00;;;17.80;80.80;;;;;;5018896;28;20187;-88
2023/05/21 01:14:13;;;;;;;21.05;19.15;;;17.80;81.00;;;;;;4999287;28;20652;-87
2023/05/21 01:16:41;;;;;;;21.83;19.92;;;17.70;81.30;;;;;;4999832;28;20206;-87
2023/05/21 01:19:10;;;;;;;20.52;18.40;;;17.80;81.40;;;;;;4999643;28;20204;-87
2023/05/21 01:21:40;;;;;;;21.27;19.48;;;17.70;81.50;;;;;;4998184;28;20394;-86
2023/05/21 01:24:06;;;;;;;20.05;18.45;;;17.80;81.30;;;;;;4997389;28;20194;-87
2023/05/21 01:26:37;;;;;;;21.73;19.88;;;17.70;81.20;;;;;;4998477;28;20186;-86
2023/05/21 01:29:06;;;;;;;21.50;19.60;;;17.80;81.30;;;;;;4998016;28;20174;-89
2023/05/21 01:31:41;;;;;;;20.55;18.67;;;17.80;81.50;;;;;;4998546;28;20182;-87
2023/05/21 01:34:10;;;;;;;20.08;18.30;;;17.80;81.30;;;;;;4998276;28;20215;-87
2023/05/21 01:36:41;;;;;;;20.77;19.08;;;17.80;81.10;;;;;;4998612;28;20237;-87
2023/05/21 01:39:16;;;;;;;21.25;19.55;;;17.90;81.00;;;;;;4999307;28;20209;-88
2023/05/21 01:41:44;;;;;;;21.17;19.05;;;17.90;81.10;;;;;;4999089;28;20180;-86
2023/05/21 01:44:11;;;;;;;21.05;19.02;;;17.90;80.90;;;;;;4999850;28;20206;-86
2023/05/21 01:46:38;;;;;;;20.83;19.20;;;18.00;80.70;;;;;;4999153;28;20185;-86
2023/05/21 01:49:05;;;;;;;21.33;19.60;;;17.90;80.30;;;;;;5006653;28;20253;-86
2023/05/21 01:51:31;;;;;;;21.13;19.33;;;18.00;80.30;;;;;;5016189;28;20185;-86
2023/05/21 01:53:57;;;;;;;20.90;19.02;;;18.00;80.30;;;;;;5017479;28;20652;-87
2023/05/21 01:56:24;;;;;;;19.67;17.88;;;18.10;80.40;;;;;;5017151;28;20197;-86
2023/05/21 01:58:51;;;;;;;21.77;20.08;;;18.10;80.50;;;;;;5019103;28;20651;-87
2023/05/21 02:01:16;;;;;;;20.25;18.45;;;18.00;79.70;;;;;;5017969;28;20177;-91
2023/05/21 02:03:42;;;;;;;20.27;18.67;;;18.10;79.90;;;;;;5017619;28;20201;-87
2023/05/21 02:06:07;;;;;;;21.38;19.38;;;18.00;80.00;;;;;;5018218;28;20190;-86
2023/05/21 02:08:33;;;;;;;21.10;19.33;;;17.90;80.10;;;;;;5018456;28;20177;-89
2023/05/21 02:10:59;;;;;;;20.20;18.40;;;18.00;80.70;;;;;;5018610;28;20177;-87
2023/05/21 02:13:24;;;;;;;20.35;18.65;;;17.90;81.10;;;;;;5019288;28;20186;-86
2023/05/21 02:15:53;;;;;;;20.70;19.00;;;17.90;81.00;;;;;;5018979;28;20205;-86
2023/05/21 02:18:20;;;;;;;20.95;19.15;;;17.90;81.20;;;;;;5018268;28;20466;-87
2023/05/21 02:20:46;;;;;;;22.23;20.33;;;17.80;81.30;;;;;;5015538;28;20184;-87
2023/05/21 02:23:11;;;;;;;21.25;19.25;;;17.80;81.30;;;;;;5017509;28;20178;-87
2023/05/21 02:25:37;;;;;;;20.85;19.15;;;17.70;81.80;;;;;;5009888;28;20209;-87
2023/05/21 02:28:03;;;;;;;20.77;18.77;;;17.80;81.90;;;;;;5002235;28;20189;-89
2023/05/21 02:30:29;;;;;;;19.70;17.88;;;17.70;82.20;;;;;;5009778;28;20182;-87
2023/05/21 02:32:54;;;;;;;20.70;19.02;;;17.50;83.70;;;;;;5006709;28;20247;-86
2023/05/21 02:35:20;;;;;;;21.00;19.10;;;17.50;83.50;;;;;;5012835;28;20214;-86
2023/05/21 02:37:46;;;;;;;20.63;18.83;;;17.60;83.60;;;;;;5011218;28;20186;-86
2023/05/21 02:40:12;;;;;;;20.17;18.42;;;17.50;84.00;;;;;;5016999;28;20197;-87
2023/05/21 02:42:38;;;;;;;20.83;19.13;;;17.40;84.30;;;;;;5005794;28;20358;-88
2023/05/21 02:45:09;;;;;;;20.83;18.90;;;17.50;84.50;;;;;;5019896;28;20471;-86
2023/05/21 02:47:35;;;;;;;20.17;18.50;;;17.40;84.80;;;;;;5022918;28;20188;-86
2023/05/21 02:50:01;;;;;;;20.55;18.85;;;17.50;84.60;;;;;;5020105;28;20280;-87
2023/05/21 02:52:27;;;;;;;20.80;19.00;;;17.50;83.90;;;;;;5021321;28;20207;-86
2023/05/21 02:54:52;;;;;;;20.95;19.25;;;17.50;84.00;;;;;;5020899;28;20365;-87
2023/05/21 02:57:18;;;;;;;21.15;19.02;;;17.40;84.60;;;;;;5020642;28;20437;-86
2023/05/21 02:59:44;;;;;;;21.35;19.45;;;17.30;85.10;;;;;;5021590;28;20178;-87
2023/05/21 03:02:10;;;;;;;20.75;19.00;;;17.40;85.00;;;;;;5021774;28;20178;-87
2023/05/21 03:04:37;;;;;;;21.00;19.30;;;17.30;85.30;;;;;;5021784;28;20208;-85
2023/05/21 03:07:04;;;;;;;21.90;20.10;;;17.30;85.00;;;;;;5023425;28;20200;-89
2023/05/21 03:09:30;;;;;;;20.33;18.52;;;17.20;85.50;;;;;;5023451;28;20201;-87
2023/05/21 03:11:55;;;;;;;20.60;18.90;;;17.30;85.60;;;;;;5024898;28;20184;-86
2023/05/21 03:14:21;;;;;;;21.02;19.13;;;17.20;85.50;;;;;;5041631;28;20207;-87
2023/05/21 03:16:47;;;;;;;21.50;19.50;;;17.20;85.60;;;;;;5040494;28;20168;-87
2023/05/21 03:19:14;;;;;;;21.20;19.42;;;17.20;85.60;;;;;;5039776;28;20177;-87
2023/05/21 03:21:40;;;;;;;22.92;20.88;;;17.20;85.60;;;;;;5041310;28;20590;-86
2023/05/21 03:24:06;;;;;;;21.10;19.27;;;17.10;85.60;;;;;;5041723;28;20185;-87
2023/05/21 03:26:32;;;;;;;20.80;19.00;;;17.10;85.60;;;;;;5040953;28;20230;-87
2023/05/21 03:28:58;;;;;;;20.08;18.38;;;17.10;85.80;;;;;;5040613;28;20199;-87
2023/05/21 03:31:25;;;;;;;21.65;19.75;;;17.00;86.00;;;;;;5039506;28;20576;-85
2023/05/21 03:33:51;;;;;;;21.77;19.98;;;17.00;85.60;;;;;;5041282;28;20177;-85
2023/05/21 03:36:17;;;;;;;21.98;20.17;;;17.00;85.50;;;;;;5031072;28;20263;-86
2023/05/21 03:38:42;;;;;;;21.30;19.55;;;17.00;85.50;;;;;;5021144;28;20213;-87
2023/05/21 03:41:09;;;;;;;20.42;18.77;;;17.00;85.70;;;;;;5016336;28;20217;-87
2023/05/21 03:43:35;;;;;;;20.92;19.13;;;16.90;86.40;;;;;;5014379;28;20192;-87
2023/05/21 03:46:01;;;;;;;19.92;18.30;;;16.70;87.80;;;;;;5004517;28;20189;-86
2023/05/21 03:48:26;;;;;;;21.40;19.63;;;16.60;88.70;;;;;;5002241;28;20187;-87
2023/05/21 03:50:52;;;;;;;20.30;18.60;;;16.50;90.10;;;;;;5014287;28;20530;-86
2023/05/21 03:53:18;;;;;;;19.63;18.02;;;16.40;89.30;;;;;;5001433;28;20530;-86
2023/05/21 03:55:43;;;;;;;20.67;18.77;;;16.40;89.20;;;;;;5011246;28;20210;-87
2023/05/21 03:58:09;;;;;;;20.50;18.73;;;16.40;89.80;;;;;;5021005;28;20433;-85
2023/05/21 04:00:39;;;;;;;20.35;18.55;;;16.40;89.10;;;;;;5021014;28;20207;-85
2023/05/21 04:03:08;;;;;;;19.98;18.17;;;16.30;89.00;;;;;;5007808;28;20242;-86
2023/05/21 04:05:33;;;;;;;20.38;18.65;;;16.40;88.80;;;;;;5004639;28;20213;-86
2023/05/21 04:07:59;;;;;;;19.65;17.98;;;16.30;89.80;;;;;;5021976;28;20189;-87
2023/05/21 04:10:25;;;;;;;21.98;19.85;;;16.20;90.50;;;;;;5019959;28;20185;-87
2023/05/21 04:12:51;;;;;;;20.33;18.45;;;16.20;90.80;;;;;;5029927;28;20184;-88
2023/05/21 04:15:18;;;;;;;20.23;18.30;;;16.30;90.10;;;;;;5037653;28;20339;-87
2023/05/21 04:17:44;;;;;;;19.20;17.60;;;16.30;89.70;;;;;;5039057;28;20187;-86
2023/05/21 04:20:12;;;;;;;20.85;18.92;;;16.40;88.30;;;;;;5038458;28;20654;-87
2023/05/21 04:22:38;;;;;;;20.10;18.08;;;16.30;88.70;;;;;;5033180;28;20185;-86
2023/05/21 04:25:04;;;;;;;19.48;17.77;;;16.30;89.20;;;;;;5018986;28;20212;-86
2023/05/21 04:27:30;;;;;;;20.55;18.73;;;16.30;88.80;;;;;;5020245;28;20199;-85
2023/05/21 04:29:56;;;;;;;21.00;18.80;;;16.30;89.00;;;;;;5021613;28;20184;-86
2023/05/21 04:32:22;;;;;;;20.83;18.83;;;16.30;88.90;;;;;;5022007;28;20463;-86
2023/05/21 04:34:48;;;;;;;20.23;18.55;;;16.40;88.30;;;;;;5021775;28;20385;-87
2023/05/21 04:37:16;;;;;;;19.40;17.77;;;16.50;87.60;;;;;;5019780;28;20186;-86
2023/05/21 04:39:42;;;;;;;20.10;18.10;;;16.50;87.80;;;;;;5021333;28;20185;-86
2023/05/21 04:42:09;;;;;;;20.23;18.33;;;16.50;87.30;;;;;;5020113;28;20252;-85
2023/05/21 04:44:37;;;;;;;21.40;19.55;;;16.60;87.10;;;;;;5020846;28;20201;-86
2023/05/21 04:47:03;;;;;;;21.08;19.35;;;16.60;87.30;;;;;;5020613;28;20264;-86
2023/05/21 04:49:28;;;;;;;20.75;19.05;;;16.50;87.90;;;;;;5018668;28;20709;-87
2023/05/21 04:51:54;;;;;;;19.45;17.85;;;16.50;88.50;;;;;;5021103;28;20184;-86
2023/05/21 04:54:21;;;;;;;20.33;18.60;;;16.60;88.10;;;;;;5020846;28;20208;-87
2023/05/21 04:56:46;;;;;;;20.48;18.73;;;16.70;88.70;;;;;;5021280;28;20264;-86
2023/05/21 04:59:13;;;;;;;20.90;19.10;;;16.70;89.00;;;;;;5020401;28;20204;-87
2023/05/21 05:01:38;;;;;;;21.45;19.55;;;16.70;89.30;;;;;;5020436;28;20193;-87
2023/05/21 05:04:04;;;;;;;21.50;19.55;;;16.80;89.00;;;;;;5021055;28;20268;-86
2023/05/21 05:06:30;;;;;;;23.13;21.13;;;16.90;88.80;;;;;;5021060;28;20184;-88
2023/05/21 05:08:56;;;;;;;23.40;21.30;;;17.00;88.20;;;;;;5022205;28;20622;-87
2023/05/21 05:11:22;;;;;;;22.33;20.38;;;17.10;87.60;;;;;;5021143;28;20178;-87
2023/05/21 05:13:47;;;;;;;21.70;19.88;;;17.10;88.50;;;;;;5020929;28;20184;-85
2023/05/21 05:16:23;;;;;;;22.85;20.75;;;17.10;88.50;;;;;;5021812;28;20205;-87
2023/05/21 05:18:50;;;;;;;21.17;19.48;;;17.00;88.50;;;;;;5022216;28;20162;-87
2023/05/21 05:21:16;;;;;;;22.05;20.05;;;17.00;89.00;;;;;;5022666;28;20173;-87
2023/05/21 05:23:41;;;;;;;22.88;20.88;;;17.10;89.30;;;;;;5022583;28;20234;-88
2023/05/21 05:26:07;;;;;;;21.35;19.60;;;17.00;88.90;;;;;;5021347;28;20189;-86
2023/05/21 05:28:33;;;;;;;23.20;21.20;;;17.10;89.00;;;;;;5020239;28;20272;-86
2023/05/21 05:30:58;;;;;;;22.60;20.60;;;17.10;88.70;;;;;;5019887;28;20187;-87
2023/05/21 05:33:24;;;;;;;22.63;20.57;;;17.10;89.20;;;;;;5020291;28;20187;-86
2023/05/21 05:35:50;;;;;;;23.30;21.20;;;17.10;89.80;;;;;;5019313;28;20219;-87
2023/05/21 05:38:15;;;;;;;22.93;20.53;;;17.20;88.90;;;;;;5018456;28;20182;-86
2023/05/21 05:40:41;;;;;;;22.33;20.47;;;17.20;88.60;;;;;;5017886;28;20202;-87
2023/05/21 05:43:07;;;;;;;22.17;20.17;;;17.30;88.50;;;;;;5017820;28;20182;-87
2023/05/21 05:45:33;;;;;;;22.77;20.75;;;17.20;88.30;;;;;;5020162;28;20211;-90
2023/05/21 05:47:58;;;;;;;22.40;20.23;;;17.30;88.20;;;;;;5028218;28;20199;-86
2023/05/21 05:50:24;;;;;;;21.63;19.77;;;17.40;87.80;;;;;;5018571;28;20212;-87
2023/05/21 05:52:50;;;;;;;22.67;20.60;;;17.40;87.50;;;;;;5018655;28;20185;-86
2023/05/21 05:55:16;;;;;;;21.42;19.30;;;17.40;87.10;;;;;;5020605;28;20200;-86
2023/05/21 05:57:41;;;;;;;22.45;20.13;;;17.50;86.70;;;;;;5019785;28;20177;-88
2023/05/21 06:00:10;;;;;;;22.63;20.58;;;17.50;86.10;;;;;;5021479;28;20181;-87
2023/05/21 06:02:36;;;;;;;21.42;19.42;;;17.70;85.80;;;;;;5022084;28;20180;-89
2023/05/21 06:05:03;;;;;;;21.95;19.95;;;17.70;85.40;;;;;;5026308;28;20223;-88
2023/05/21 06:07:29;;;;;;;21.83;19.83;;;17.70;85.30;;;;;;5004229;28;20292;-89
2023/05/21 06:09:54;;;;;;;20.67;18.77;;;17.70;85.50;;;;;;5001603;28;20283;-89
2023/05/21 06:12:20;;;;;;;21.65;19.85;;;17.80;84.70;;;;;;5029204;28;20197;-88
2023/05/21 06:14:47;;;;;;;21.27;19.52;;;17.90;84.20;;;;;;5000827;28;20248;-88
2023/05/21 06:17:13;;;;;;;23.20;21.10;;;17.90;84.40;;;;;;4998162;28;20262;-87
2023/05/21 06:19:39;;;;;;;23.60;21.45;;;17.90;84.20;;;;;;5014185;28;20185;-88
2023/05/21 06:22:05;;;;;;;23.05;21.08;;;17.90;83.70;;;;;;5027629;28;20180;-88
2023/05/21 06:24:31;;;;;;;23.55;21.52;;;18.00;83.80;;;;;;5023976;28;20205;-88
2023/05/21 06:26:56;;;;;;;22.83;20.80;;;18.00;83.90;;;;;;5013756;28;20192;-87
2023/05/21 06:29:22;;;;;;;22.27;20.27;;;18.10;83.60;;;;;;5015744;28;20201;-88
2023/05/21 06:31:48;;;;;;;22.75;20.65;;;18.20;82.90;;;;;;5024123;28;20228;-87
2023/05/21 06:34:14;;;;;;;23.63;21.48;;;18.30;82.90;;;;;;5028024;28;20754;-88
2023/05/21 06:36:39;;;;;;;22.88;20.65;;;18.30;82.40;;;;;;5032143;28;20227;-88
2023/05/21 06:39:05;;;;;;;23.45;21.25;;;18.30;82.30;;;;;;5024162;28;20196;-90
2023/05/21 06:41:31;;;;;;;22.85;20.92;;;18.30;81.80;;;;;;5026659;28;20181;-87
2023/05/21 06:43:57;;;;;;;22.55;20.60;;;18.40;82.50;;;;;;5014617;28;20197;-87
2023/05/21 06:46:22;;;;;;;21.25;19.17;;;18.30;82.50;;;;;;5019884;28;20267;-88
2023/05/21 06:48:51;;;;;;;20.95;19.15;;;18.20;83.40;;;;;;5017460;28;20178;-88
2023/05/21 06:51:17;;;;;;;21.95;19.92;;;18.30;83.10;;;;;;5028282;28;20631;-87
2023/05/21 06:53:42;;;;;;;22.38;20.38;;;18.40;81.90;;;;;;5024299;28;20178;-88
2023/05/21 06:56:08;;;;;;;20.92;18.83;;;18.50;81.50;;;;;;5027446;28;20235;-88
2023/05/21 06:58:34;;;;;;;21.17;19.23;;;18.70;80.60;;;;;;5019954;28;20245;-88
2023/05/21 07:01:00;;;;;;;21.23;19.48;;;18.70;80.30;;;;;;5016095;28;20305;-89
2023/05/21 07:03:26;;;;;;;19.85;18.15;;;18.80;80.40;;;;;;5018508;28;20177;-87
2023/05/21 07:05:52;;;;;;;19.52;17.73;;;18.80;80.20;;;;;;5023684;28;20209;-87
2023/05/21 07:08:20;;;;;;;19.95;18.05;;;19.00;79.20;;;;;;5028093;28;20173;-87
2023/05/21 07:10:46;;;;;;;21.15;19.25;;;19.10;79.40;;;;;;5026533;28;20184;-88
2023/05/21 07:13:12;;;;;;;20.48;18.63;;;19.20;79.00;;;;;;5025739;28;20184;-88
2023/05/21 07:15:38;;;;;;;21.13;19.27;;;19.10;79.70;;;;;;5020868;28;20284;-87
2023/05/21 07:18:04;;;;;;;19.65;17.95;;;19.30;77.70;;;;;;5010209;28;20223;-87
2023/05/21 07:20:29;;;;;;;20.42;18.63;;;19.30;78.60;;;;;;5015746;28;20214;-87
2023/05/21 07:22:55;;;;;;;20.92;19.05;;;19.40;78.40;;;;;;5006877;28;20236;-89
2023/05/21 07:25:22;;;;;;;19.48;17.52;;;19.50;77.50;;;;;;5021348;28;20236;-89
2023/05/21 07:27:48;;;;;;;20.27;18.48;;;19.60;76.80;;;;;;5026996;28;20186;-89
2023/05/21 07:30:13;;;;;;;19.65;17.88;;;19.60;76.00;;;;;;5026779;28;20228;-88
2023/05/21 07:32:39;;;;;;;19.52;17.55;;;19.70;76.40;;;;;;5020439;28;20243;-87
2023/05/21 07:35:05;;;;;;;19.83;17.85;;;19.90;76.40;;;;;;5012582;28;20198;-86
2023/05/21 07:37:31;;;;;;;19.17;17.50;;;19.90;75.50;;;;;;5002867;28;20170;-89
2023/05/21 07:40:00;;;;;;;18.65;17.05;;;20.10;74.40;;;;;;5002548;28;20221;-87
2023/05/21 07:42:26;;;;;;;19.17;17.58;;;20.20;73.00;;;;;;5002440;28;20186;-87
2023/05/21 07:44:51;;;;;;;17.75;16.15;;;20.30;72.00;;;;;;5000615;28;20215;-87
2023/05/21 07:47:18;;;;;;;18.00;16.60;;;20.40;73.20;;;;;;5003043;28;20202;-87
2023/05/21 07:49:43;;;;;;;17.88;16.38;;;20.70;71.60;;;;;;5015848;28;20184;-87
2023/05/21 07:52:09;;;;;;;17.73;16.30;;;20.80;69.80;;;;;;5011740;28;20255;-88
2023/05/21 07:54:35;;;;;;;17.23;15.73;;;20.80;69.40;;;;;;4999879;28;20462;-88
2023/05/21 07:57:01;;;;;;;17.55;16.15;;;20.90;69.70;;;;;;5000849;28;20181;-87
2023/05/21 07:59:27;;;;;;;18.30;16.90;;;21.00;69.50;;;;;;5002383;28;20184;-88
2023/05/21 08:01:53;;;;;;;17.42;15.88;;;21.20;69.10;;;;;;5001541;28;20213;-87
2023/05/21 08:04:19;;;;;;;17.67;16.17;;;21.30;68.50;;;;;;5000564;28;20213;-88
2023/05/21 08:06:44;;;;;;;18.50;16.98;;;21.50;67.90;;;;;;5015990;28;20250;-88
2023/05/21 08:09:11;;;;;;;17.75;16.25;;;21.70;66.10;;;;;;5021262;28;20190;-89
2023/05/21 08:11:37;;;;;;;16.73;15.43;;;21.70;66.10;;;;;;5020812;28;20244;-87
2023/05/21 08:14:02;;;;;;;18.17;16.45;;;21.90;65.40;;;;;;5018281;28;20207;-89
2023/05/21 08:16:28;;;;;;;17.90;16.50;;;21.90;65.70;;;;;;5004172;28;20181;-86
2023/05/21 08:18:54;;;;;;;17.42;15.93;;;22.00;65.00;;;;;;5005782;28;20171;-86
2023/05/21 08:21:20;;;;;;;18.92;17.48;;;22.20;64.70;;;;;;5005681;28;20205;-86
2023/05/21 08:23:46;;;;;;;18.27;16.90;;;22.10;65.90;;;;;;5021952;28;20183;-87
2023/05/21 08:26:11;;;;;;;17.48;15.98;;;22.20;65.10;;;;;;5024750;28;20190;-86
2023/05/21 08:28:37;;;;;;;17.42;16.02;;;22.30;63.80;;;;;;5005922;28;20185;-86
2023/05/21 08:31:03;;;;;;;16.88;15.45;;;22.30;63.70;;;;;;5013870;28;20225;-87
2023/05/21 08:33:29;;;;;;;17.05;15.63;;;22.20;62.90;;;;;;5004234;28;20186;-85
2023/05/21 08:35:54;;;;;;;16.27;15.07;;;22.10;64.70;;;;;;5016969;28;20210;-85
2023/05/21 08:38:20;;;;;;;17.65;16.35;;;22.20;63.60;;;;;;5022638;28;20182;-87
2023/05/21 08:40:49;;;;;;;17.38;15.98;;;22.20;64.10;;;;;;5021140;28;20201;-86
2023/05/21 08:43:16;;;;;;;17.33;15.93;;;22.20;63.70;;;;;;5023766;28;20182;-86
2023/05/21 08:45:46;;;;;;;16.27;15.05;;;22.10;63.20;;;;;;5005795;28;20229;-87
2023/05/21 08:48:15;;;;;;;17.60;16.10;;;22.30;63.20;;;;;;5002708;28;20196;-86
2023/05/21 08:50:42;;;;;;;17.63;16.00;;;22.10;63.10;;;;;;5004511;28;20652;-87
2023/05/21 08:53:08;;;;;;;17.52;16.23;;;22.00;63.40;;;;;;5005083;28;20197;-87
2023/05/21 08:55:34;;;;;;;17.38;15.90;;;22.00;63.80;;;;;;5014165;28;20703;-86
2023/05/21 08:58:00;;;;;;;17.10;15.80;;;21.80;64.70;;;;;;5024341;28;20188;-86
2023/05/21 09:00:25;;;;;;;17.10;15.63;;;21.80;64.60;;;;;;5024023;28;20181;-86
2023/05/21 09:02:53;;;;;;;16.58;15.18;;;21.70;64.90;;;;;;5024535;28;20189;-86
2023/05/21 09:05:19;;;;;;;16.63;15.13;;;21.70;64.10;;;;;;5024907;28;20259;-85
2023/05/21 09:08:04;;;;;;;16.60;15.30;;;21.80;64.00;;;;;;5025903;28;20193;-85
2023/05/21 09:10:38;;;;;;;16.35;15.15;;;21.90;63.80;;;;;;5024409;28;20186;-85
2023/05/21 09:13:06;;;;;;;16.25;15.05;;;21.80;62.90;;;;;;5028768;28;20241;-85
2023/05/21 09:15:32;;;;;;;16.52;15.23;;;21.90;62.40;;;;;;5044540;28;20212;-86
2023/05/21 09:17:58;;;;;;;16.52;15.15;;;21.90;62.70;;;;;;5045069;28;20191;-86
2023/05/21 09:20:25;;;;;;;16.73;15.23;;;22.20;62.20;;;;;;5022475;28;20261;-88
2023/05/21 09:22:51;;;;;;;15.85;14.50;;;22.30;61.50;;;;;;5022710;28;20244;-87
2023/05/21 09:25:28;;;;;;;15.10;14.00;;;22.60;60.80;;;;;;5003914;28;20260;-86
2023/05/21 09:27:57;;;;;;;15.93;14.73;;;22.90;58.30;;;;;;5005110;28;20198;-86
2023/05/21 09:30:23;;;;;;;16.35;14.93;;;23.00;58.00;;;;;;5003700;28;20170;-86
2023/05/21 09:32:57;;;;;;;15.65;14.35;;;23.10;57.40;;;;;;5001911;28;20186;-86
2023/05/21 09:35:23;;;;;;;15.82;14.73;;;23.20;58.30;;;;;;5021090;28;20212;-87
2023/05/21 09:37:51;;;;;;;16.10;14.70;;;23.10;58.10;;;;;;5021126;28;20239;-86
2023/05/21 09:40:20;;;;;;;16.38;15.18;;;22.70;59.40;;;;;;5021071;28;20575;-85
2023/05/21 09:42:48;;;;;;;15.70;14.55;;;22.60;59.50;;;;;;5020254;28;20185;-86
2023/05/21 09:45:21;;;;;;;15.85;14.55;;;22.80;59.80;;;;;;5006148;28;20209;-86
2023/05/21 09:47:48;;;;;;;15.30;14.20;;;23.00;59.00;;;;;;5001048;28;20223;-86
2023/05/21 09:50:17;;;;;;;15.75;14.35;;;23.10;58.00;;;;;;5001235;28;20174;-86
2023/05/21 09:52:43;;;;;;;15.70;14.60;;;23.30;57.70;;;;;;5001062;28;20178;-85
2023/05/21 09:55:13;;;;;;;16.83;15.32;;;23.50;57.90;;;;;;5002775;28;20220;-87
2023/05/21 09:57:42;;;;;;;15.43;14.18;;;23.70;57.20;;;;;;5003402;28;20218;-86
2023/05/21 10:00:16;;;;;;;16.48;15.18;;;23.60;56.50;;;;;;5002784;28;20723;-87
2023/05/21 10:02:45;;;;;;;16.52;15.10;;;23.70;55.80;;;;;;5003205;28;20150;-86
2023/05/21 10:05:13;;;;;;;16.83;15.45;;;23.70;56.20;;;;;;5002964;28;20869;-87
2023/05/21 10:07:50;;;;;;;16.00;14.80;;;23.70;56.30;;;;;;5002882;28;20187;-88
2023/05/21 10:10:18;;;;;;;14.95;13.75;;;23.70;56.60;;;;;;5002329;28;20192;-85
2023/05/21 10:12:46;;;;;;;15.50;14.40;;;23.70;57.10;;;;;;5021371;28;20215;-86
2023/05/21 10:15:15;;;;;;;15.38;14.18;;;23.90;56.40;;;;;;5034973;28;20583;-85
2023/05/21 10:17:41;;;;;;;16.45;15.15;;;24.00;56.10;;;;;;5022486;28;20544;-86
2023/05/21 10:20:09;;;;;;;17.45;16.13;;;24.10;55.80;;;;;;5021175;28;20209;-86
2023/05/21 10:22:36;;;;;;;15.68;14.55;;;24.20;56.10;;;;;;5018892;28;20240;-86
2023/05/21 10:25:02;;;;;;;16.52;15.10;;;24.10;56.30;;;;;;5009332;28;20206;-87
2023/05/21 10:27:29;;;;;;;15.68;14.57;;;24.30;55.10;;;;;;5000379;28;20197;-87
2023/05/21 10:29:58;;;;;;;16.40;15.23;;;24.20;54.60;;;;;;4999131;28;20206;-86
2023/05/21 10:32:25;;;;;;;15.23;14.10;;;24.30;54.50;;;;;;4999550;28;20245;-86
2023/05/21 10:34:53;;;;;;;17.08;15.77;;;24.60;55.40;;;;;;4999060;28;20232;-88
2023/05/21 10:37:22;;;;;;;17.60;16.30;;;24.80;54.00;;;;;;4999539;28;20178;-87
2023/05/21 10:39:49;;;;;;;16.50;15.40;;;24.70;53.80;;;;;;5001042;28;20213;-87
2023/05/21 10:42:23;;;;;;;16.70;15.40;;;24.40;54.50;;;;;;5000330;28;20178;-87
2023/05/21 10:45:01;;;;;;;15.82;14.63;;;24.20;55.70;;;;;;5000938;28;20209;-88
2023/05/21 10:48:08;;;;;;;15.88;14.77;;;24.30;56.60;;;;;;5001643;28;20167;-88
2023/05/21 10:50:47;;;;;;;15.73;14.55;;;24.30;56.30;;;;;;5003354;28;20201;-86
2023/05/21 10:53:16;;;;;;;15.60;14.40;;;24.50;55.90;;;;;;5001970;28;20245;-86
2023/05/21 10:55:45;;;;;;;16.15;14.77;;;24.60;55.20;;;;;;5001838;28;20198;-88
2023/05/21 10:58:50;;;;;;;16.25;14.95;;;24.60;54.70;;;;;;5002573;28;20242;-86
2023/05/21 11:01:18;;;;;;;15.82;14.55;;;24.80;54.80;;;;;;5002955;28;20177;-87
2023/05/21 11:03:45;;;;;;;15.30;14.20;;;25.00;54.50;;;;;;5018968;28;20182;-86
2023/05/21 11:06:23;;;;;;;15.82;14.73;;;25.40;52.40;;;;;;5002038;28;20244;-87
2023/05/21 11:08:52;;;;;;;15.23;14.02;;;25.80;51.70;;;;;;5003586;28;20205;-87
2023/05/21 11:11:45;;;;;;;16.92;15.65;;;25.90;50.70;;;;;;5010664;28;20684;-87
2023/05/21 11:14:31;;;;;;;17.88;16.38;;;25.90;51.40;;;;;;5023214;28;20205;-87
2023/05/21 11:17:00;;;;;;;16.17;14.88;;;26.10;50.50;;;;;;5024669;28;20176;-86
2023/05/21 11:19:40;;;;;;;17.33;16.02;;;26.20;51.20;;;;;;5023361;28;20394;-87
2023/05/21 11:22:23;;;;;;;16.73;15.43;;;26.00;50.40;;;;;;5024699;28;20249;-86
2023/05/21 11:24:49;;;;;;;15.68;14.57;;;25.70;51.50;;;;;;5023721;28;20216;-87
2023/05/21 11:27:40;;;;;;;17.95;15.93;;;25.80;51.50;;;;;;5022578;28;20258;-87
2023/05/21 11:30:08;;;;;;;15.88;14.77;;;25.70;51.90;;;;;;5021676;28;20177;-86
2023/05/21 11:32:56;;;;;;;16.35;15.05;;;25.70;51.80;;;;;;5015444;28;20210;-88
2023/05/21 11:35:21;;;;;;;16.60;15.25;;;25.70;51.70;;;;;;5005055;28;20273;-87
2023/05/21 11:37:52;;;;;;;16.15;15.05;;;25.60;51.80;;;;;;5006153;28;20170;-87
2023/05/21 11:40:21;;;;;;;16.00;14.70;;;25.60;52.20;;;;;;5009729;28;20198;-86
2023/05/21 11:42:51;;;;;;;15.68;14.50;;;25.80;52.40;;;;;;5007733;28;20271;-87
2023/05/21 11:45:21;;;;;;;16.08;14.90;;;25.90;51.00;;;;;;5007115;28;20190;-87
2023/05/21 11:47:48;;;;;;;16.45;15.23;;;26.00;51.50;;;;;;5013381;28;20220;-87
2023/05/21 11:50:15;;;;;;;16.13;14.93;;;26.00;51.50;;;;;;5022537;28;20181;-87
2023/05/21 11:52:41;;;;;;;16.50;14.98;;;26.30;51.00;;;;;;5024673;28;20170;-87
2023/05/21 11:55:07;;;;;;;16.52;15.32;;;26.50;49.30;;;;;;5022945;28;20296;-87
2023/05/21 11:57:33;;;;;;;15.32;14.23;;;26.70;49.10;;;;;;5025630;28;20176;-88
2023/05/21 12:00:01;;;;;;;14.00;12.98;;;26.90;47.40;;;;;;5022273;28;20201;-87
2023/05/21 12:02:29;;;;;;;14.00;13.10;;;27.00;43.20;;;;;;5021252;28;20186;-86
2023/05/21 12:04:59;;;;;;;14.48;13.38;;;27.40;43.10;;;;;;5022913;28;20202;-86
2023/05/21 12:07:28;;;;;;;13.90;12.82;;;28.00;40.70;;;;;;5023421;28;20197;-86
2023/05/21 12:09:55;;;;;;;13.30;12.35;;;28.30;39.10;;;;;;5022447;28;20271;-87
2023/05/21 12:12:21;;;;;;;13.90;12.90;;;28.50;39.50;;;;;;5018574;28;20203;-87
2023/05/21 12:14:49;;;;;;;13.38;12.30;;;28.30;40.50;;;;;;5043139;28;20228;-86
2023/05/21 12:17:22;;;;;;;14.70;13.70;;;28.50;38.30;;;;;;5038243;28;20200;-87
2023/05/21 12:19:51;;;;;;;14.38;13.48;;;28.80;38.90;;;;;;5041270;28;20181;-87
2023/05/21 12:22:17;;;;;;;13.55;12.75;;;28.80;39.30;;;;;;5040825;28;20172;-87
2023/05/21 12:24:44;;;;;;;14.43;13.43;;;28.80;38.40;;;;;;5017555;28;20719;-88
2023/05/21 12:27:12;;;;;;;14.55;13.55;;;28.40;38.90;;;;;;5002737;28;20229;-87
2023/05/21 12:29:40;;;;;;;14.23;13.32;;;28.50;38.40;;;;;;5003855;28;20178;-88